McKinney's Hourly Summary for Sunday, March 19, 2017
Hour Temp
(f)
RH
(%)
Solar Rad.
(MJ/m2)
Rainfall
(in)
Wind
(mph)
3/19/2017 12:00 AM 62 99 0 0 0
3/19/2017 1:00 AM 62 99 0 0 0.83
3/19/2017 2:00 AM 62 99 0 0 0
3/19/2017 3:00 AM 61 99 0.01 0 0
3/19/2017 4:00 AM 59 99 0.01 0 0
3/19/2017 5:00 AM 60 99 0.01 0 0
3/19/2017 6:00 AM 59 99 0.01 0 0
3/19/2017 7:00 AM 60 99 0.01 0 0.03
3/19/2017 8:00 AM 60 99 0.05 0 0.16
3/19/2017 9:00 AM 62 99 0.49 0 0.13
3/19/2017 10:00 AM 66 88 1.06 0 1.35
3/19/2017 11:00 AM 71 71 0.98 0 5.9
3/19/2017 12:00 PM 74 66 2.44 0 7.77
3/19/2017 1:00 PM 76 60 2.72 0 9.48
3/19/2017 2:00 PM 77 59 2.64 0 10.04
3/19/2017 3:00 PM 78 56 2.56 0 10.39
3/19/2017 4:00 PM 79 54 2.24 0 10.5
3/19/2017 5:00 PM 80 52 1.77 0 10.28
3/19/2017 6:00 PM 80 53 1.11 0 10.23
3/19/2017 7:00 PM 79 53 0.43 0 10.83
3/19/2017 8:00 PM 76 56 0.03 0 9.29
3/19/2017 9:00 PM 73 64 0 0 7.03
3/19/2017 10:00 PM 72 66 0 0 6.05
3/19/2017 11:00 PM 71 67 0 0 4.83
Data Summary 69 77 18.57 0.00 4.80